In Rescue
 
Open Full Screen Window  High Contrast Mode
May 27, 2024 2:28 PM CDT
Present Weather: Light Rain
Weather Information
Wind Direction
  ---
Wind Speed
  00 kt (0 mph)
Wind Gust
  00 kt (0 mph)
Altimeter
29.83 in
Visibility
5 SM
Temperature
14° C
57° F
Dewpoint
14° C
57° F
Humidity
100%
1hr Rain Fall
00.01 in.
24hr Rain Fall
00.08 in.
Sky Condition
Overcast @ 6,000 ft
Broken @ 5,000 ft
MVFR

METAR K04W 271928Z AUTO 00000KT 5SM -RA BKN050 OVC060 14/14 A2983 RMK AO2 LTG DSNT S THRU W P0001

FAA Disclaimer: The data displayed is for advisory purposes only and is not to be used for flight planning or operations.